Cutler Ridge, Florida
Current Conditions -  °F | °C
As of 1:53 AM on Sunday 26 Oct 2014 (Local Time) from KTMB Reporting Station
Clear Clear  
Wind Chill: 72°   Ceiling: Unl
Heat Index: 72°   Visibility: 10mi
Dew Point: 65°   Wind: 9mph
Humidity: 78%   Direction: 10°N
Pressure: 29.93"   Gusts: NA
Location:  25.59°N, 80.38°W
Report Text: KTMB 260553Z AUTO 01008KT 10SM CLR 22/18 A2993 RMK AO2 SLP135 T02220183 10250 20189 58007 $
Loading
Personal Weather Stations






























Interactive Weather Map
Tropical Storm Tracking
New forecast layout! Learn more

10-Day Weather Forecast

Advertisements
Track Severe Weather on mobile